sensor_id;sensor_type;location;lat;lon;timestamp;pressure;altitude;pressure_sealevel;temperature;humidity
60417;BME280;46263;44.726;10.396;2023-09-30T00:00:43;101048.97;;;23.22;52.33
60417;BME280;46263;44.726;10.396;2023-09-30T00:03:08;101052.38;;;23.11;52.31
60417;BME280;46263;44.726;10.396;2023-09-30T00:05:36;101059.72;;;23.04;52.80
60417;BME280;46263;44.726;10.396;2023-09-30T00:08:02;101059.78;;;22.97;52.98
60417;BME280;46263;44.726;10.396;2023-09-30T00:10:28;101054.03;;;23.04;52.82
60417;BME280;46263;44.726;10.396;2023-09-30T00:12:56;101055.41;;;23.13;52.55
60417;BME280;46263;44.726;10.396;2023-09-30T00:15:21;101047.00;;;23.15;52.52
60417;BME280;46263;44.726;10.396;2023-09-30T00:17:47;101049.09;;;23.14;52.45
60417;BME280;46263;44.726;10.396;2023-09-30T00:20:12;101045.81;;;23.18;52.32
60417;BME280;46263;44.726;10.396;2023-09-30T00:22:40;101056.19;;;23.23;52.39
60417;BME280;46263;44.726;10.396;2023-09-30T00:25:06;101048.94;;;23.12;52.32
60417;BME280;46263;44.726;10.396;2023-09-30T00:27:32;101052.53;;;23.13;52.00
60417;BME280;46263;44.726;10.396;2023-09-30T00:29:57;101055.66;;;23.07;52.15
60417;BME280;46263;44.726;10.396;2023-09-30T00:32:23;101059.28;;;23.08;52.34
60417;BME280;46263;44.726;10.396;2023-09-30T00:34:48;101055.22;;;23.11;52.31
60417;BME280;46263;44.726;10.396;2023-09-30T00:37:14;101050.59;;;23.15;52.15
60417;BME280;46263;44.726;10.396;2023-09-30T00:39:39;101045.50;;;23.14;52.07
60417;BME280;46263;44.726;10.396;2023-09-30T00:42:05;101040.41;;;23.12;52.55
60417;BME280;46263;44.726;10.396;2023-09-30T00:44:30;101043.97;;;23.13;52.23
60417;BME280;46263;44.726;10.396;2023-09-30T00:46:56;101051.94;;;23.14;52.35
60417;BME280;46263;44.726;10.396;2023-09-30T00:49:25;101051.38;;;23.16;52.46
60417;BME280;46263;44.726;10.396;2023-09-30T00:51:51;101044.31;;;23.17;52.24
60417;BME280;46263;44.726;10.396;2023-09-30T00:54:18;101043.09;;;23.20;52.36
60417;BME280;46263;44.726;10.396;2023-09-30T00:56:45;101041.56;;;23.09;52.32
60417;BME280;46263;44.726;10.396;2023-09-30T00:59:14;101046.19;;;23.05;52.76
60417;BME280;46263;44.726;10.396;2023-09-30T01:01:44;101046.00;;;23.03;52.43
60417;BME280;46263;44.726;10.396;2023-09-30T01:04:14;101054.03;;;23.04;52.29
60417;BME280;46263;44.726;10.396;2023-09-30T01:06:40;101057.41;;;23.03;52.26
60417;BME280;46263;44.726;10.396;2023-09-30T01:09:07;101054.09;;;22.97;52.24
60417;BME280;46263;44.726;10.396;2023-09-30T01:11:32;101050.28;;;22.85;52.37
60417;BME280;46263;44.726;10.396;2023-09-30T01:13:57;101047.91;;;22.91;52.66
60417;BME280;46263;44.726;10.396;2023-09-30T01:16:23;101042.94;;;22.91;52.53
60417;BME280;46263;44.726;10.396;2023-09-30T01:18:49;101043.56;;;22.90;52.39
60417;BME280;46263;44.726;10.396;2023-09-30T01:21:14;101043.09;;;22.84;52.79
60417;BME280;46263;44.726;10.396;2023-09-30T01:23:40;101038.88;;;22.85;52.56
60417;BME280;46263;44.726;10.396;2023-09-30T01:26:08;101031.06;;;22.85;52.64
60417;BME280;46263;44.726;10.396;2023-09-30T01:28:35;101040.31;;;22.76;52.69
60417;BME280;46263;44.726;10.396;2023-09-30T01:31:00;101028.44;;;22.70;52.66
60417;BME280;46263;44.726;10.396;2023-09-30T01:33:26;101025.34;;;22.76;52.82
60417;BME280;46263;44.726;10.396;2023-09-30T01:35:52;101034.78;;;22.78;52.53
60417;BME280;46263;44.726;10.396;2023-09-30T01:38:18;101040.75;;;22.73;52.57
60417;BME280;46263;44.726;10.396;2023-09-30T01:40:43;101035.66;;;22.71;52.66
60417;BME280;46263;44.726;10.396;2023-09-30T01:43:09;101036.03;;;22.58;53.16
60417;BME280;46263;44.726;10.396;2023-09-30T01:45:39;101038.66;;;22.47;53.89
60417;BME280;46263;44.726;10.396;2023-09-30T01:48:05;101049.25;;;22.37;53.55
60417;BME280;46263;44.726;10.396;2023-09-30T01:50:30;101047.06;;;22.28;53.90
60417;BME280;46263;44.726;10.396;2023-09-30T01:52:56;101042.47;;;22.33;53.84
60417;BME280;46263;44.726;10.396;2023-09-30T01:55:22;101040.84;;;22.39;54.26
60417;BME280;46263;44.726;10.396;2023-09-30T01:57:48;101036.34;;;22.36;54.31
60417;BME280;46263;44.726;10.396;2023-09-30T02:00:13;101041.00;;;22.24;55.03
60417;BME280;46263;44.726;10.396;2023-09-30T02:02:39;101040.19;;;22.14;54.96
60417;BME280;46263;44.726;10.396;2023-09-30T02:05:05;101036.81;;;22.25;54.88
60417;BME280;46263;44.726;10.396;2023-09-30T02:07:33;101035.81;;;22.30;54.40
60417;BME280;46263;44.726;10.396;2023-09-30T02:09:59;101041.88;;;22.34;54.13
60417;BME280;46263;44.726;10.396;2023-09-30T02:12:29;101043.88;;;21.90;54.90
60417;BME280;46263;44.726;10.396;2023-09-30T02:14:54;101038.56;;;21.70;55.52
60417;BME280;46263;44.726;10.396;2023-09-30T02:17:20;101042.53;;;21.91;55.09
60417;BME280;46263;44.726;10.396;2023-09-30T02:19:46;101046.16;;;22.09;54.63
60417;BME280;46263;44.726;10.396;2023-09-30T02:22:12;101037.84;;;22.20;54.41
60417;BME280;46263;44.726;10.396;2023-09-30T02:24:37;101037.00;;;22.10;55.17
60417;BME280;46263;44.726;10.396;2023-09-30T02:27:05;101050.22;;;21.98;55.83
60417;BME280;46263;44.726;10.396;2023-09-30T02:29:31;101044.53;;;21.98;55.32
60417;BME280;46263;44.726;10.396;2023-09-30T02:31:57;101041.69;;;21.98;55.66
60417;BME280;46263;44.726;10.396;2023-09-30T02:34:22;101049.25;;;22.03;54.76
60417;BME280;46263;44.726;10.396;2023-09-30T02:36:49;101040.19;;;22.14;54.53
60417;BME280;46263;44.726;10.396;2023-09-30T02:39:15;101040.19;;;22.14;54.25
60417;BME280;46263;44.726;10.396;2023-09-30T02:41:42;101037.41;;;22.24;53.85
60417;BME280;46263;44.726;10.396;2023-09-30T02:44:07;101040.19;;;22.31;53.50
60417;BME280;46263;44.726;10.396;2023-09-30T02:46:33;101029.44;;;22.39;52.91
60417;BME280;46263;44.726;10.396;2023-09-30T02:49:00;101037.44;;;22.41;53.47
60417;BME280;46263;44.726;10.396;2023-09-30T02:51:26;101017.63;;;22.43;53.01
60417;BME280;46263;44.726;10.396;2023-09-30T02:53:51;101029.63;;;22.41;53.12
60417;BME280;46263;44.726;10.396;2023-09-30T02:56:17;101016.88;;;22.42;52.92
60417;BME280;46263;44.726;10.396;2023-09-30T02:58:45;101021.56;;;22.47;52.82
60417;BME280;46263;44.726;10.396;2023-09-30T03:01:14;101019.72;;;22.42;52.49
60417;BME280;46263;44.726;10.396;2023-09-30T03:03:42;101026.34;;;22.45;52.91
60417;BME280;46263;44.726;10.396;2023-09-30T03:06:10;101022.88;;;22.46;52.37
60417;BME280;46263;44.726;10.396;2023-09-30T03:08:36;101016.13;;;22.42;52.55
60417;BME280;46263;44.726;10.396;2023-09-30T03:11:02;101005.78;;;22.46;52.86
60417;BME280;46263;44.726;10.396;2023-09-30T03:13:27;101004.44;;;22.47;52.67
60417;BME280;46263;44.726;10.396;2023-09-30T03:15:53;101004.72;;;22.42;53.02
60417;BME280;46263;44.726;10.396;2023-09-30T03:18:18;101014.03;;;22.25;53.68
60417;BME280;46263;44.726;10.396;2023-09-30T03:20:58;101012.22;;;22.20;53.62
60417;BME280;46263;44.726;10.396;2023-09-30T03:23:26;101008.94;;;22.24;53.50
60417;BME280;46263;44.726;10.396;2023-09-30T03:25:59;100995.84;;;22.21;53.61
60417;BME280;46263;44.726;10.396;2023-09-30T03:28:28;101004.16;;;22.26;53.68
60417;BME280;46263;44.726;10.396;2023-09-30T03:30:54;100994.25;;;22.27;53.51
60417;BME280;46263;44.726;10.396;2023-09-30T03:33:19;101001.47;;;22.28;52.94
60417;BME280;46263;44.726;10.396;2023-09-30T03:35:44;101006.94;;;22.17;53.13
60417;BME280;46263;44.726;10.396;2023-09-30T03:38:11;101008.41;;;22.18;53.30
60417;BME280;46263;44.726;10.396;2023-09-30T03:40:39;101006.34;;;22.18;53.68
60417;BME280;46263;44.726;10.396;2023-09-30T03:43:04;101002.84;;;22.10;53.78
60417;BME280;46263;44.726;10.396;2023-09-30T03:45:33;101001.50;;;22.11;53.32
60417;BME280;46263;44.726;10.396;2023-09-30T03:47:59;101003.16;;;22.14;53.60
60417;BME280;46263;44.726;10.396;2023-09-30T03:50:27;101005.16;;;22.21;53.32
60417;BME280;46263;44.726;10.396;2023-09-30T03:53:04;101008.00;;;22.21;53.19
60417;BME280;46263;44.726;10.396;2023-09-30T03:55:30;101016.06;;;22.15;53.24
60417;BME280;46263;44.726;10.396;2023-09-30T03:57:57;101011.53;;;22.12;53.34
60417;BME280;46263;44.726;10.396;2023-09-30T04:00:22;101010.28;;;22.06;54.05
60417;BME280;46263;44.726;10.396;2023-09-30T04:02:49;101010.53;;;22.00;54.19
60417;BME280;46263;44.726;10.396;2023-09-30T04:05:16;101018.16;;;21.81;54.55
60417;BME280;46263;44.726;10.396;2023-09-30T04:07:43;101026.59;;;21.55;55.13
60417;BME280;46263;44.726;10.396;2023-09-30T04:10:09;101028.56;;;21.45;55.53
60417;BME280;46263;44.726;10.396;2023-09-30T04:12:35;101038.72;;;21.55;55.40
60417;BME280;46263;44.726;10.396;2023-09-30T04:15:01;101032.75;;;21.68;54.91
60417;BME280;46263;44.726;10.396;2023-09-30T04:17:26;101037.59;;;21.75;54.68
60417;BME280;46263;44.726;10.396;2023-09-30T04:19:54;101026.44;;;21.69;55.10
60417;BME280;46263;44.726;10.396;2023-09-30T04:22:20;101025.00;;;21.61;55.71
60417;BME280;46263;44.726;10.396;2023-09-30T04:24:46;101014.44;;;21.54;56.07
60417;BME280;46263;44.726;10.396;2023-09-30T04:27:12;101016.19;;;21.50;56.06
60417;BME280;46263;44.726;10.396;2023-09-30T04:29:37;101007.00;;;21.59;55.61
60417;BME280;46263;44.726;10.396;2023-09-30T04:32:04;101012.88;;;21.61;55.41
60417;BME280;46263;44.726;10.396;2023-09-30T04:34:30;101022.50;;;21.65;55.24
60417;BME280;46263;44.726;10.396;2023-09-30T04:36:56;101025.00;;;21.61;55.43
60417;BME280;46263;44.726;10.396;2023-09-30T04:39:21;101017.06;;;21.60;55.65
60417;BME280;46263;44.726;10.396;2023-09-30T04:41:47;101020.72;;;21.53;56.09
60417;BME280;46263;44.726;10.396;2023-09-30T04:44:13;101028.75;;;21.47;55.77
60417;BME280;46263;44.726;10.396;2023-09-30T04:46:38;101020.91;;;21.55;55.55
60417;BME280;46263;44.726;10.396;2023-09-30T04:49:07;101024.16;;;21.51;55.16
60417;BME280;46263;44.726;10.396;2023-09-30T04:51:33;101024.38;;;21.46;55.54
60417;BME280;46263;44.726;10.396;2023-09-30T04:53:59;101025.06;;;21.54;54.79
60417;BME280;46263;44.726;10.396;2023-09-30T04:56:25;101025.78;;;21.62;54.32
60417;BME280;46263;44.726;10.396;2023-09-30T04:58:50;101022.34;;;21.63;55.04
60417;BME280;46263;44.726;10.396;2023-09-30T05:01:16;101029.22;;;21.60;54.93
60417;BME280;46263;44.726;10.396;2023-09-30T05:03:44;101030.81;;;21.70;54.33
60417;BME280;46263;44.726;10.396;2023-09-30T05:06:09;101026.63;;;21.71;54.04
60417;BME280;46263;44.726;10.396;2023-09-30T05:08:35;101033.53;;;21.61;55.17
60417;BME280;46263;44.726;10.396;2023-09-30T05:11:01;101021.44;;;21.53;55.21
60417;BME280;46263;44.726;10.396;2023-09-30T05:13:26;101022.56;;;21.58;54.77
60417;BME280;46263;44.726;10.396;2023-09-30T05:15:52;101028.22;;;21.65;54.33
60417;BME280;46263;44.726;10.396;2023-09-30T05:18:18;101037.56;;;21.58;54.32
60417;BME280;46263;44.726;10.396;2023-09-30T05:20:44;101042.28;;;21.39;54.84
60417;BME280;46263;44.726;10.396;2023-09-30T05:23:09;101045.03;;;21.46;55.34
60417;BME280;46263;44.726;10.396;2023-09-30T05:25:38;101044.47;;;21.48;55.23
60417;BME280;46263;44.726;10.396;2023-09-30T05:28:05;101048.31;;;21.43;55.44
60417;BME280;46263;44.726;10.396;2023-09-30T05:30:32;101050.41;;;21.18;55.55
60417;BME280;46263;44.726;10.396;2023-09-30T05:32:58;101048.38;;;21.11;55.98
60417;BME280;46263;44.726;10.396;2023-09-30T05:35:24;101047.41;;;21.16;55.58
60417;BME280;46263;44.726;10.396;2023-09-30T05:37:49;101053.84;;;21.16;55.96
60417;BME280;46263;44.726;10.396;2023-09-30T05:40:18;101058.78;;;21.16;55.54
60417;BME280;46263;44.726;10.396;2023-09-30T05:42:57;101061.16;;;21.02;55.63
60417;BME280;46263;44.726;10.396;2023-09-30T05:45:23;101071.00;;;21.01;56.02
60417;BME280;46263;44.726;10.396;2023-09-30T05:47:49;101070.88;;;20.92;55.97
60417;BME280;46263;44.726;10.396;2023-09-30T05:50:18;101077.41;;;21.09;55.71
60417;BME280;46263;44.726;10.396;2023-09-30T05:52:49;101074.25;;;21.22;55.89
60417;BME280;46263;44.726;10.396;2023-09-30T05:55:19;101078.16;;;21.34;55.44
60417;BME280;46263;44.726;10.396;2023-09-30T05:57:51;101075.25;;;21.42;54.92
60417;BME280;46263;44.726;10.396;2023-09-30T06:00:19;101081.97;;;21.54;54.68
60417;BME280;46263;44.726;10.396;2023-09-30T06:02:56;101082.22;;;21.48;54.65
60417;BME280;46263;44.726;10.396;2023-09-30T06:05:22;101086.13;;;21.60;54.39
60417;BME280;46263;44.726;10.396;2023-09-30T06:07:50;101083.38;;;21.69;54.37
60417;BME280;46263;44.726;10.396;2023-09-30T06:10:16;101086.00;;;21.75;54.28
60417;BME280;46263;44.726;10.396;2023-09-30T06:12:46;101079.53;;;21.74;54.34
60417;BME280;46263;44.726;10.396;2023-09-30T06:15:13;101087.81;;;21.80;53.87
60417;BME280;46263;44.726;10.396;2023-09-30T06:17:40;101086.81;;;21.85;53.97
60417;BME280;46263;44.726;10.396;2023-09-30T06:20:06;101084.41;;;21.98;53.37
60417;BME280;46263;44.726;10.396;2023-09-30T06:22:42;101090.63;;;22.04;53.90
60417;BME280;46263;44.726;10.396;2023-09-30T06:25:08;101086.94;;;22.11;53.78
60417;BME280;46263;44.726;10.396;2023-09-30T06:27:34;101089.69;;;22.19;53.80
60417;BME280;46263;44.726;10.396;2023-09-30T06:29:59;101093.31;;;22.19;53.82
60417;BME280;46263;44.726;10.396;2023-09-30T06:32:25;101092.09;;;22.22;54.13
60417;BME280;46263;44.726;10.396;2023-09-30T06:34:50;101096.75;;;22.35;53.70
60417;BME280;46263;44.726;10.396;2023-09-30T06:37:15;101103.69;;;22.41;53.78
60417;BME280;46263;44.726;10.396;2023-09-30T06:39:41;101094.72;;;22.45;53.18
60417;BME280;46263;44.726;10.396;2023-09-30T06:42:06;101095.16;;;22.41;54.20
60417;BME280;46263;44.726;10.396;2023-09-30T06:44:32;101100.00;;;22.48;53.66
60417;BME280;46263;44.726;10.396;2023-09-30T06:46:58;101101.69;;;22.51;53.61
60417;BME280;46263;44.726;10.396;2023-09-30T06:49:23;101088.09;;;22.59;53.92
60417;BME280;46263;44.726;10.396;2023-09-30T06:51:49;101096.81;;;22.61;53.62
60417;BME280;46263;44.726;10.396;2023-09-30T06:54:14;101090.78;;;22.57;53.26
60417;BME280;46263;44.726;10.396;2023-09-30T06:56:40;101087.22;;;22.66;53.21
60417;BME280;46263;44.726;10.396;2023-09-30T06:59:06;101090.75;;;22.74;53.25
60417;BME280;46263;44.726;10.396;2023-09-30T07:01:32;101081.59;;;22.75;53.81
60417;BME280;46263;44.726;10.396;2023-09-30T07:03:57;101073.16;;;22.68;54.21
60417;BME280;46263;44.726;10.396;2023-09-30T07:06:23;101080.84;;;22.75;54.46
60417;BME280;46263;44.726;10.396;2023-09-30T07:08:49;101076.78;;;22.78;55.21
60417;BME280;46263;44.726;10.396;2023-09-30T07:11:15;101072.94;;;22.83;55.41
60417;BME280;46263;44.726;10.396;2023-09-30T07:13:40;101080.63;;;22.90;55.14
60417;BME280;46263;44.726;10.396;2023-09-30T07:16:05;101079.59;;;22.95;54.85
60417;BME280;46263;44.726;10.396;2023-09-30T07:18:31;101079.28;;;22.91;54.84
60417;BME280;46263;44.726;10.396;2023-09-30T07:20:57;101084.13;;;22.71;54.58
60417;BME280;46263;44.726;10.396;2023-09-30T07:23:22;101090.91;;;22.76;54.85
60417;BME280;46263;44.726;10.396;2023-09-30T07:25:47;101088.19;;;22.78;54.73
60417;BME280;46263;44.726;10.396;2023-09-30T07:28:13;101083.16;;;22.86;54.52
60417;BME280;46263;44.726;10.396;2023-09-30T07:30:39;101093.59;;;23.00;54.29
60417;BME280;46263;44.726;10.396;2023-09-30T07:33:05;101100.50;;;22.97;54.59
60417;BME280;46263;44.726;10.396;2023-09-30T07:35:32;101108.34;;;23.06;54.83
60417;BME280;46263;44.726;10.396;2023-09-30T07:37:57;101114.88;;;23.16;54.45
60417;BME280;46263;44.726;10.396;2023-09-30T07:40:23;101122.72;;;23.25;54.11
60417;BME280;46263;44.726;10.396;2023-09-30T07:42:48;101115.25;;;23.30;53.64
60417;BME280;46263;44.726;10.396;2023-09-30T07:45:15;101119.59;;;23.31;53.24
60417;BME280;46263;44.726;10.396;2023-09-30T07:47:44;101116.31;;;23.34;53.10
60417;BME280;46263;44.726;10.396;2023-09-30T07:50:11;101116.66;;;23.38;52.81
60417;BME280;46263;44.726;10.396;2023-09-30T07:52:38;101122.34;;;23.38;52.79
60417;BME280;46263;44.726;10.396;2023-09-30T07:55:08;101121.72;;;23.30;52.55
60417;BME280;46263;44.726;10.396;2023-09-30T07:57:34;101130.22;;;23.21;52.67
60417;BME280;46263;44.726;10.396;2023-09-30T08:00:00;101135.38;;;23.32;52.53
60417;BME280;46263;44.726;10.396;2023-09-30T08:02:28;101143.81;;;23.39;52.60
60417;BME280;46263;44.726;10.396;2023-09-30T08:04:58;101145.06;;;23.45;52.61
60417;BME280;46263;44.726;10.396;2023-09-30T08:07:25;101137.72;;;23.52;52.50
60417;BME280;46263;44.726;10.396;2023-09-30T08:09:50;101145.69;;;23.53;52.97
60417;BME280;46263;44.726;10.396;2023-09-30T08:12:16;101140.44;;;23.59;53.02
60417;BME280;46263;44.726;10.396;2023-09-30T08:14:41;101144.81;;;23.60;53.16
60417;BME280;46263;44.726;10.396;2023-09-30T08:17:09;101146.03;;;23.67;52.83
60417;BME280;46263;44.726;10.396;2023-09-30T08:19:36;101143.91;;;23.67;52.76
60417;BME280;46263;44.726;10.396;2023-09-30T08:22:01;101142.00;;;23.70;52.59
60417;BME280;46263;44.726;10.396;2023-09-30T08:24:28;101140.94;;;23.65;52.79
60417;BME280;46263;44.726;10.396;2023-09-30T08:26:54;101140.78;;;23.73;53.14
60417;BME280;46263;44.726;10.396;2023-09-30T08:29:20;101146.50;;;23.73;52.95
60417;BME280;46263;44.726;10.396;2023-09-30T08:31:46;101136.94;;;23.78;53.18
60417;BME280;46263;44.726;10.396;2023-09-30T08:34:12;101131.97;;;23.78;52.62
60417;BME280;46263;44.726;10.396;2023-09-30T08:36:40;101137.19;;;23.72;52.14
60417;BME280;46263;44.726;10.396;2023-09-30T08:39:06;101128.06;;;23.83;52.26
60417;BME280;46263;44.726;10.396;2023-09-30T08:41:33;101133.03;;;23.83;52.25
60417;BME280;46263;44.726;10.396;2023-09-30T08:44:04;101145.81;;;23.91;52.25
60417;BME280;46263;44.726;10.396;2023-09-30T08:46:32;101151.13;;;23.95;51.63
60417;BME280;46263;44.726;10.396;2023-09-30T08:48:59;101159.53;;;23.93;51.55
60417;BME280;46263;44.726;10.396;2023-09-30T08:51:26;101165.69;;;23.99;51.93
60417;BME280;46263;44.726;10.396;2023-09-30T08:53:52;101162.84;;;23.99;52.08
60417;BME280;46263;44.726;10.396;2023-09-30T08:56:20;101161.06;;;24.03;51.93
60417;BME280;46263;44.726;10.396;2023-09-30T08:58:49;101160.78;;;24.09;52.04
60417;BME280;46263;44.726;10.396;2023-09-30T09:01:16;101158.97;;;24.13;51.67
60417;BME280;46263;44.726;10.396;2023-09-30T09:03:41;101158.22;;;24.13;51.26
60417;BME280;46263;44.726;10.396;2023-09-30T09:06:07;101144.81;;;24.15;51.30
60417;BME280;46263;44.726;10.396;2023-09-30T09:08:32;101152.66;;;24.14;51.56
60417;BME280;46263;44.726;10.396;2023-09-30T09:10:59;101151.00;;;24.21;51.25
60417;BME280;46263;44.726;10.396;2023-09-30T09:13:26;101154.16;;;24.25;51.07
60417;BME280;46263;44.726;10.396;2023-09-30T09:16:10;101157.63;;;24.23;51.21
60417;BME280;46263;44.726;10.396;2023-09-30T09:18:36;101155.50;;;24.24;50.70
60417;BME280;46263;44.726;10.396;2023-09-30T09:21:09;101158.97;;;24.32;52.13
60417;BME280;46263;44.726;10.396;2023-09-30T09:23:46;101162.16;;;24.36;51.15
60417;BME280;46263;44.726;10.396;2023-09-30T09:26:22;101156.72;;;24.40;50.99
60417;BME280;46263;44.726;10.396;2023-09-30T09:28:49;101155.25;;;24.39;51.13
60417;BME280;46263;44.726;10.396;2023-09-30T09:31:34;101146.38;;;24.44;52.00
60417;BME280;46263;44.726;10.396;2023-09-30T09:34:04;101145.34;;;24.49;51.15
60417;BME280;46263;44.726;10.396;2023-09-30T09:36:45;101144.72;;;24.51;51.33
60417;BME280;46263;44.726;10.396;2023-09-30T09:39:11;101153.47;;;24.53;50.61
60417;BME280;46263;44.726;10.396;2023-09-30T09:41:50;101155.25;;;24.58;50.47
60417;BME280;46263;44.726;10.396;2023-09-30T09:44:17;101156.78;;;24.59;50.44
60417;BME280;46263;44.726;10.396;2023-09-30T09:46:45;101156.78;;;24.59;49.67
60417;BME280;46263;44.726;10.396;2023-09-30T09:49:12;101154.06;;;24.61;49.65
60417;BME280;46263;44.726;10.396;2023-09-30T09:51:38;101157.66;;;24.61;50.04
60417;BME280;46263;44.726;10.396;2023-09-30T09:54:06;101148.06;;;24.66;50.67
60417;BME280;46263;44.726;10.396;2023-09-30T09:56:33;101148.34;;;24.70;50.18
60417;BME280;46263;44.726;10.396;2023-09-30T09:59:01;101145.91;;;24.76;50.47
60417;BME280;46263;44.726;10.396;2023-09-30T10:01:30;101148.19;;;24.78;50.06
60417;BME280;46263;44.726;10.396;2023-09-30T10:03:56;101134.94;;;24.82;50.05
60417;BME280;46263;44.726;10.396;2023-09-30T10:06:22;101134.16;;;24.82;49.97
60417;BME280;46263;44.726;10.396;2023-09-30T10:08:49;101140.66;;;24.82;49.36
60417;BME280;46263;44.726;10.396;2023-09-30T10:11:20;101130.84;;;24.85;49.75
60417;BME280;46263;44.726;10.396;2023-09-30T10:13:58;101133.25;;;24.89;50.57
60417;BME280;46263;44.726;10.396;2023-09-30T10:21:38;101127.50;;;25.07;48.15
60417;BME280;46263;44.726;10.396;2023-09-30T10:35:19;101132.72;;;25.30;48.65
60417;BME280;46263;44.726;10.396;2023-09-30T10:37:46;101137.84;;;25.31;49.14
60417;BME280;46263;44.726;10.396;2023-09-30T10:40:29;101147.78;;;25.30;48.86
60417;BME280;46263;44.726;10.396;2023-09-30T10:42:55;101153.19;;;25.36;48.93
60417;BME280;46263;44.726;10.396;2023-09-30T10:51:19;101162.47;;;25.55;50.13
60417;BME280;46263;44.726;10.396;2023-09-30T10:53:54;101162.16;;;25.61;49.92
60417;BME280;46263;44.726;10.396;2023-09-30T10:56:23;101150.69;;;25.61;48.91
60417;BME280;46263;44.726;10.396;2023-09-30T10:58:49;101150.06;;;25.62;49.24
60417;BME280;46263;44.726;10.396;2023-09-30T11:01:17;101137.88;;;25.62;48.52
60417;BME280;46263;44.726;10.396;2023-09-30T11:03:44;101129.75;;;25.58;49.04
60417;BME280;46263;44.726;10.396;2023-09-30T11:06:15;101132.72;;;25.70;49.56
60417;BME280;46263;44.726;10.396;2023-09-30T11:08:56;101128.31;;;25.78;49.47
60417;BME280;46263;44.726;10.396;2023-09-30T11:13:59;101119.22;;;25.81;49.16
60417;BME280;46263;44.726;10.396;2023-09-30T11:16:25;101111.56;;;25.84;49.15
60417;BME280;46263;44.726;10.396;2023-09-30T11:18:54;101105.81;;;25.84;49.06
60417;BME280;46263;44.726;10.396;2023-09-30T11:21:20;101101.84;;;25.89;49.29
60417;BME280;46263;44.726;10.396;2023-09-30T11:23:45;101090.06;;;25.94;49.48
60417;BME280;46263;44.726;10.396;2023-09-30T11:26:11;101092.44;;;25.98;49.83
60417;BME280;46263;44.726;10.396;2023-09-30T11:28:44;101090.59;;;26.02;49.51
60417;BME280;46263;44.726;10.396;2023-09-30T11:31:14;101094.34;;;26.05;49.17
60417;BME280;46263;44.726;10.396;2023-09-30T11:33:52;101077.31;;;26.07;48.86
60417;BME280;46263;44.726;10.396;2023-09-30T11:36:21;101082.59;;;26.22;50.09
60417;BME280;46263;44.726;10.396;2023-09-30T11:38:48;101082.75;;;26.24;48.65
60417;BME280;46263;44.726;10.396;2023-09-30T11:41:15;101080.75;;;26.26;48.91
60417;BME280;46263;44.726;10.396;2023-09-30T11:44:06;101075.56;;;26.34;48.31
60417;BME280;46263;44.726;10.396;2023-09-30T11:46:56;101067.84;;;26.37;47.45
60417;BME280;46263;44.726;10.396;2023-09-30T11:49:38;101065.59;;;26.35;48.08
60417;BME280;46263;44.726;10.396;2023-09-30T11:52:08;101064.22;;;26.36;48.72
60417;BME280;46263;44.726;10.396;2023-09-30T11:54:37;101061.97;;;26.35;46.96
60417;BME280;46263;44.726;10.396;2023-09-30T11:57:04;101046.81;;;26.44;47.83
60417;BME280;46263;44.726;10.396;2023-09-30T11:59:31;101050.22;;;26.52;47.77
60417;BME280;46263;44.726;10.396;2023-09-30T12:01:58;101041.38;;;26.59;48.41
60417;BME280;46263;44.726;10.396;2023-09-30T12:04:24;101034.16;;;26.69;46.82
60417;BME280;46263;44.726;10.396;2023-09-30T12:06:51;101040.28;;;26.75;47.85
60417;BME280;46263;44.726;10.396;2023-09-30T12:09:17;101039.69;;;26.77;47.77
60417;BME280;46263;44.726;10.396;2023-09-30T12:11:54;101044.81;;;26.78;47.52
60417;BME280;46263;44.726;10.396;2023-09-30T12:14:21;101042.44;;;26.86;46.53
60417;BME280;46263;44.726;10.396;2023-09-30T12:16:47;101046.94;;;26.89;45.70
60417;BME280;46263;44.726;10.396;2023-09-30T12:19:15;101034.75;;;27.00;44.72
60417;BME280;46263;44.726;10.396;2023-09-30T12:21:41;101031.09;;;27.00;44.29
60417;BME280;46263;44.726;10.396;2023-09-30T12:24:08;101024.50;;;26.97;44.80
60417;BME280;46263;44.726;10.396;2023-09-30T12:26:35;101026.25;;;27.02;45.02
60417;BME280;46263;44.726;10.396;2023-09-30T12:29:01;101030.00;;;27.05;45.72
60417;BME280;46263;44.726;10.396;2023-09-30T12:31:27;101029.00;;;27.00;44.15
60417;BME280;46263;44.726;10.396;2023-09-30T12:33:52;101032.25;;;27.06;44.21
60417;BME280;46263;44.726;10.396;2023-09-30T12:36:19;101029.50;;;27.08;45.03
60417;BME280;46263;44.726;10.396;2023-09-30T12:38:44;101034.75;;;27.12;45.30
60417;BME280;46263;44.726;10.396;2023-09-30T12:41:10;101031.28;;;27.13;44.76
60417;BME280;46263;44.726;10.396;2023-09-30T12:43:37;101022.66;;;27.13;44.68
60417;BME280;46263;44.726;10.396;2023-09-30T12:46:02;101020.16;;;27.19;46.30
60417;BME280;46263;44.726;10.396;2023-09-30T12:48:29;101023.25;;;27.23;44.94
60417;BME280;46263;44.726;10.396;2023-09-30T12:50:55;101015.53;;;27.26;44.46
60417;BME280;46263;44.726;10.396;2023-09-30T12:53:20;101028.41;;;27.25;43.79
60417;BME280;46263;44.726;10.396;2023-09-30T12:55:46;101025.13;;;27.19;42.69
60417;BME280;46263;44.726;10.396;2023-09-30T12:58:11;101024.28;;;27.16;42.15
60417;BME280;46263;44.726;10.396;2023-09-30T13:00:36;101017.03;;;27.15;41.52
60417;BME280;46263;44.726;10.396;2023-09-30T13:03:03;101021.03;;;27.22;42.72
60417;BME280;46263;44.726;10.396;2023-09-30T13:05:28;101012.53;;;27.35;41.76